AirNav   Everest Fuels
 
 630 users online  

0FL2 Alligator Drink Seaplane Base
Geneva, Florida, USA

GOING TO GENEVA?


FAA INFORMATION EFFECTIVE 15 JULY 2021

Location

FAA Identifier: 0FL2
Lat/Long: 28-47-15.9700N 081-09-51.2200W
28-47.266167N 081-09.853667W
28.7877694,-81.1642278
(estimated)
Elevation: 19 ft. / 6 m (estimated)
Variation: 04W (1995)
From city: 6 miles E of GENEVA, FL
Time zone: UTC -4 (UTC -5 during Standard Time)
Zip code: 32732

Seaplane Base Operations

Seaplane Base use: Private use. Permission required prior to landing
Activation date: 04/1999
Control tower: no
ARTCC: JACKSONVILLE CENTER
FSS: SAINT PETERSBURG FLIGHT SERVICE STATION
Attendance: IREG
Wind indicator: lighted
Segmented circle: yes

Seaplane Base Communications

UNICOM: 122.8
WX ASOS at SFB (4 nm W): 125.975 (407-321-9384)
WX ASOS at ORL (17 nm SW): 127.25 (407-658-6753)
WX AWOS-3 at DED (18 nm N): 119.575 (386-740-5811)
WX AWOS-3 at EVB (20 nm NE): 124.625 (386-409-4705)
WX AWOS-3 at X21 (20 nm SE): 119.725 (321-385-0383)

Nearby radio navigation aids

VOR radial/distance  VOR name  Freq  Var
ORLr031/17.2ORLANDO VORTAC112.2000E
OMNr185/31.0ORMOND BEACH VORTAC112.6000E

Seaplane Base Services

Runway Information

Runway 5W/23W

Dimensions: 2000 x 100 ft. / 610 x 30 m
Surface: water
RUNWAY 5W  RUNWAY 23W
Traffic pattern: rightleft

Seaplane Base Ownership and Management from official FAA records

Ownership: Privately-owned
Owner: BILL LOWERY
3000 WEST OSCEOLA ROAD
GENEVA, FL 32732
Phone 407-349-2183
CELL 407-947-5777
Manager: BILL LOWERY
3000 WEST OSCEOLA ROAD
GENEVA, FL 32732
Phone 407-349-2183

Seaplane Base Operational Statistics

Aircraft based on the field: 1
Single engine airplanes: 1
    

Additional Remarks

FOR CD CTC ORLANDO APCH AT 407-852-7553.

Instrument Procedures

There are no published instrument procedures at 0FL2.

Some nearby airports with instrument procedures:

KSFB - Orlando Sanford International Airport (4 nm W)
X50 - Massey Ranch Airpark (17 nm NE)
KORL - Executive Airport (17 nm SW)
KDED - DeLand Municipal Airport-Sidney H Taylor Field (18 nm N)
KEVB - New Smyrna Beach Municipal Airport (20 nm NE)
X21 - Arthur Dunn Air Park (20 nm SE)
 
Loc | Ops | Rwys | IFR | FBO | Links
Com | Nav | Svcs | Stats | Notes


 
Area around 0FL2 (Alligator Drink Seaplane Base)
 
Road maps at: MapQuest Bing Google
 
Aerial photo
No photo
 
Sectional chart

 
Airport distance calculator
Flying to Alligator Drink Seaplane Base? Find the distance to fly.

From to 0FL2

Sunrise and sunset
Times for 01-Aug-2021
 Local
(UTC-4)
 Zulu
(UTC)
Morning civil twilight06:2110:21
Sunrise06:4710:47
Sunset20:1500:15
Evening civil twilight20:4100:41

Current date and time
Zulu (UTC)  01-Aug-2021 11:33:17
Local (UTC-4)  01-Aug-2021 07:33:17
 
METAR
KSFB 
3nm SW 
011053Z 19005KT 10SM CLR 27/24 A3004 RMK AO2 SLP171 T02670239
KORL 
17nm SW 
011053Z 20005KT 10SM CLR 26/25 A3005 RMK AO2 SLP176 T02610250
KDED 
18nm N 
011110Z AUTO 24005KT 10SM CLR 26/24 A3006 RMK AO2 T02620243
KEVB 
20nm NE 
011047Z 22006KT 10SM FEW047 25/24 A3002 RMK FIRST
TAF
KSFB 
3nm SW 
010540Z 0106/0206 24006KT P6SM FEW040 FM011400 23012KT P6SM SCT035 SCT250 FM012000 25011KT P6SM VCTS SCT035CB SCT120 BKN250 FM020000 23007KT P6SM FEW020 SCT080
NOTAMs
Click for the latest NOTAMs
NOTAMs are issued by the DoD/FAA and will open in a separate window not controlled by AirNav.

 

 
 

Would you like to see your business listed on this page?

 If your business provides an interesting product or service to pilots, flight crews, aircraft, or users of the Alligator Drink Seaplane Base, you should consider listing it here.  To start the listing process, click on the button below
 
Add a business
 

Other Pages about Alligator Drink Seaplane Base

www.bullgatorsflyin.com
 
Update a link
 
Copyright © AirNav, LLC. All rights reserved. Privacy Policy  Contact